createdAt,value
2022-08-26T03:12:01.444Z,0.1
2022-08-26T03:14:01.710Z,0.2
2022-08-26T03:15:01.149Z,0.3
2022-08-26T03:17:01.371Z,0.4
2022-08-26T03:18:01.112Z,0.5
2022-08-26T03:20:06.128Z,0.6
2022-08-26T03:21:01.185Z,0.7
2022-08-26T03:22:01.345Z,0.8
2022-08-26T03:23:01.385Z,0.9
2022-08-26T03:24:01.100Z,1.1
2022-08-26T03:25:01.107Z,1.2
2022-08-26T03:26:01.134Z,1.3
2022-08-26T03:27:01.309Z,1.5
2022-08-26T03:28:02.878Z,1.6
2022-08-26T03:29:01.138Z,1.7
2022-08-26T03:30:01.107Z,2.0
2022-08-26T03:31:01.160Z,2.3
2022-08-26T03:32:01.319Z,2.7
2022-08-26T03:33:01.134Z,3.1
2022-08-26T03:34:01.107Z,3.5
2022-08-26T03:35:01.111Z,4.0
2022-08-26T03:36:01.139Z,4.5
2022-08-26T03:37:01.317Z,5.3
2022-08-26T03:38:02.440Z,6.1
2022-08-26T03:39:01.115Z,6.9
2022-08-26T03:40:01.181Z,8.2
2022-08-26T03:41:01.113Z,9.5
2022-08-26T03:42:01.350Z,11.3
2022-08-26T03:43:01.169Z,13.1
2022-08-26T03:44:01.936Z,14.9
2022-08-26T03:45:01.113Z,17.6
2022-08-26T03:46:01.162Z,20.3
2022-08-26T03:47:01.316Z,24.5
2022-08-26T03:48:01.135Z,28.7
2022-08-26T03:49:01.125Z,32.9
2022-08-26T03:50:01.111Z,39.3
2022-08-26T03:51:01.180Z,45.6
2022-08-26T03:52:01.320Z,54.9
2022-08-26T03:54:01.127Z,64.3
2022-08-26T03:55:01.096Z,78.1
2022-08-26T03:56:01.132Z,91.4
2022-08-26T03:57:01.100Z,110.9
2022-08-26T03:58:01.318Z,129.9
2022-08-26T03:59:01.107Z,148.8
2022-08-26T04:00:01.103Z,176.1
2022-08-26T04:01:01.224Z,202.3
2022-08-26T04:02:01.142Z,239.0
2022-08-26T04:03:02.463Z,274.1
2022-08-26T04:04:01.100Z,309.3
2022-08-26T04:05:01.173Z,357.3
2022-08-26T04:06:01.413Z,403.0
2022-08-26T04:07:01.100Z,464.7
2022-08-26T04:08:01.313Z,523.1
2022-08-26T04:09:01.112Z,581.5
2022-08-26T04:10:01.103Z,654.1
2022-08-26T04:11:01.284Z,726.6
2022-08-26T04:12:01.106Z,815.2
2022-08-26T04:13:06.448Z,903.8
2022-08-26T04:14:01.101Z,992.4
2022-08-26T04:15:01.103Z,1097.2
2022-08-26T04:16:01.173Z,1202.0
2022-08-26T04:17:01.107Z,1325.7
2022-08-26T04:18:01.872Z,1449.5
2022-08-26T04:19:01.130Z,1573.2
2022-08-26T04:20:01.168Z,1716.1
2022-08-26T04:21:01.354Z,1859.1
2022-08-26T04:22:01.105Z,2024.1
2022-08-26T04:23:01.499Z,2189.1
2022-08-26T04:24:03.470Z,2354.1
2022-08-26T04:25:01.129Z,2541.3
2022-08-26T04:26:01.133Z,2728.6
2022-08-26T04:27:01.110Z,2934.2
2022-08-26T04:28:01.331Z,3139.8
2022-08-26T04:29:01.181Z,3345.4
2022-08-26T04:30:01.112Z,3573.9
2022-08-26T04:31:01.183Z,3802.3
2022-08-26T04:32:01.199Z,4057.3
2022-08-26T04:33:12.822Z,4312.3
2022-08-26T04:34:01.108Z,4567.3
2022-08-26T04:35:01.131Z,4839.4
2022-08-26T04:36:01.144Z,5111.5
2022-08-26T04:37:01.129Z,5391.0
2022-08-26T04:38:01.331Z,5670.5
2022-08-26T04:39:01.116Z,5950.1
2022-08-26T04:40:01.157Z,6235.3
2022-08-26T04:41:01.245Z,6520.5
2022-08-26T04:42:01.722Z,6821.3
2022-08-26T04:43:02.129Z,7122.1
2022-08-26T04:44:01.112Z,7422.9
2022-08-26T04:45:01.110Z,7748.5
2022-08-26T04:46:01.221Z,8074.1
2022-08-26T04:47:01.111Z,8399.7
2022-08-26T04:48:01.402Z,8725.3
2022-08-26T04:49:01.139Z,9050.9
2022-08-26T04:50:01.896Z,9376.3
2022-08-26T04:51:01.231Z,9701.8
2022-08-26T04:52:01.112Z,10051.6
2022-08-26T04:53:01.502Z,10401.4
2022-08-26T04:54:01.117Z,10751.2
2022-08-26T04:55:01.261Z,11070.4
2022-08-26T04:56:01.144Z,11389.6
2022-08-26T04:57:01.115Z,11699.2
2022-08-26T04:58:02.266Z,12008.8
2022-08-26T04:59:01.110Z,12318.4
2022-08-26T05:00:01.114Z,12637.4
2022-08-26T05:01:01.157Z,12956.4
2022-08-26T05:03:01.349Z,13319.7
2022-08-26T05:04:01.144Z,13683.1
2022-08-26T05:05:01.120Z,14062.5
2022-08-26T05:06:01.538Z,14393.0
2022-08-26T05:07:02.245Z,14912.4
2022-08-26T05:08:01.741Z,15361.9
2022-08-26T05:09:01.102Z,15811.5
2022-08-26T05:10:01.105Z,16293.9
2022-08-26T05:11:01.160Z,16760.3
2022-08-26T05:12:01.105Z,17334.3
2022-08-26T05:13:04.566Z,17861.6
2022-08-26T05:14:02.195Z,18388.9
2022-08-26T05:15:01.169Z,18839.9
2022-08-26T05:16:01.523Z,19209.2
2022-08-26T05:17:01.172Z,19729.8
2022-08-26T05:18:01.322Z,20150.1
2022-08-26T05:19:01.167Z,20570.3
2022-08-26T05:20:01.170Z,20892.7
2022-08-26T05:21:01.245Z,21215.1
2022-08-26T05:22:01.166Z,21474.9
2022-08-26T05:23:02.660Z,21734.6
2022-08-26T05:24:01.204Z,21994.3
2022-08-26T05:25:01.102Z,22372.3
2022-08-26T05:26:01.275Z,22750.2
2022-08-26T05:27:01.170Z,23161.9
2022-08-26T05:28:01.451Z,23573.5
2022-08-26T05:29:01.103Z,23985.2
2022-08-26T05:30:01.182Z,24324.8
2022-08-26T05:31:01.295Z,24664.4
2022-08-26T05:32:01.114Z,24901.5
2022-08-26T05:33:03.499Z,25138.7
2022-08-26T05:34:03.573Z,25375.8
2022-08-26T05:35:01.177Z,25753.4
2022-08-26T05:36:01.234Z,26131.0
2022-08-26T05:37:01.182Z,26628.6
2022-08-26T05:38:01.454Z,27126.2
2022-08-26T05:39:01.181Z,27623.8
2022-08-26T05:40:01.228Z,27835.8
2022-08-26T05:41:01.170Z,28047.8
2022-08-26T05:42:01.177Z,28333.7
2022-08-26T05:43:01.548Z,28619.7
2022-08-26T05:44:01.112Z,28905.6
2022-08-26T05:45:01.180Z,29420.7
2022-08-26T05:46:01.249Z,29935.7
2022-08-26T05:47:01.176Z,30721.8
2022-08-26T05:48:06.665Z,31507.9
2022-08-26T05:49:01.112Z,32293.9
2022-08-26T05:50:01.183Z,32750.7
2022-08-26T05:51:01.263Z,33207.4
2022-08-26T05:52:01.177Z,33523.5
2022-08-26T05:54:01.306Z,33839.5
2022-08-26T05:55:01.097Z,34263.3
2022-08-26T05:56:01.261Z,34821.5
2022-08-26T05:57:01.103Z,35434.5
2022-08-26T05:58:03.421Z,35832.4
2022-08-26T05:59:01.302Z,36230.3
2022-08-26T06:00:01.128Z,36321.2
2022-08-26T06:01:01.134Z,36331.5
2022-08-26T06:02:01.154Z,36886.2
2022-08-26T06:03:01.233Z,37121.1
2022-08-26T06:04:01.822Z,37356.1
2022-08-26T06:05:01.104Z,37329.3
2022-08-26T06:06:01.139Z,37573.1
2022-08-26T06:07:01.141Z,37883.6
2022-08-26T06:08:01.128Z,38088.5
2022-08-26T06:09:01.563Z,38293.5
2022-08-26T06:10:21.568Z,38912.0
2022-08-26T06:11:01.119Z,39530.5
2022-08-26T06:12:01.173Z,41174.6
2022-08-26T06:13:12.895Z,42818.7
2022-08-26T06:14:03.685Z,44462.7
2022-08-26T06:15:01.113Z,45513.7
2022-08-26T06:16:01.201Z,46564.7
2022-08-26T06:17:01.111Z,47000.1
2022-08-26T06:18:01.581Z,47435.5
2022-08-26T06:19:01.313Z,47870.9
2022-08-26T06:20:01.107Z,48737.1
2022-08-26T06:21:01.125Z,49603.2
2022-08-26T06:22:06.116Z,50461.4
2022-08-26T06:23:01.116Z,51319.6
2022-08-26T06:24:01.344Z,52177.8
2022-08-26T06:25:01.166Z,52453.4
2022-08-26T06:26:01.116Z,52729.0
2022-08-26T06:27:01.223Z,51754.7
2022-08-26T06:28:04.061Z,50780.3
2022-08-26T06:29:01.675Z,49806.0
2022-08-26T06:30:01.117Z,50126.5
2022-08-26T06:31:01.245Z,50446.9
2022-08-26T06:32:06.112Z,50717.1
2022-08-26T06:33:05.116Z,50987.3
2022-08-26T06:34:01.319Z,51257.5
2022-08-26T06:35:01.222Z,50405.9
2022-08-26T06:37:01.263Z,51384.7
2022-08-26T06:38:01.116Z,52304.6
2022-08-26T06:39:01.439Z,53224.5
2022-08-26T06:40:01.183Z,54144.5
2022-08-26T06:41:01.113Z,55125.7
2022-08-26T06:42:02.527Z,56107.0
2022-08-26T06:43:01.210Z,57257.9
2022-08-26T06:44:01.442Z,58408.9
2022-08-26T06:45:02.199Z,59559.8
2022-08-26T06:46:01.212Z,60315.9
2022-08-26T06:47:01.133Z,61072.1
2022-08-26T06:48:02.377Z,61949.6
2022-08-26T06:49:01.440Z,62827.1
2022-08-26T06:50:01.179Z,63704.7
2022-08-26T06:51:01.176Z,65535.0
2022-08-26T07:00:01.188Z,65535.0
2022-08-26T07:15:01.123Z,65535.0
2022-08-26T07:31:01.467Z,65535.0
2022-08-26T07:45:01.109Z,65535.0
2022-08-26T08:00:01.118Z,65535.0
2022-08-26T08:15:01.120Z,65535.0
2022-08-26T08:30:01.109Z,65535.0
2022-08-26T08:45:01.445Z,65535.0
2022-08-26T09:00:02.481Z,65535.0
2022-08-26T09:15:01.165Z,65535.0
2022-08-26T09:30:01.116Z,65535.0
2022-08-26T09:45:01.148Z,65535.0
2022-08-26T10:00:01.121Z,65535.0
2022-08-26T10:15:01.117Z,65535.0
2022-08-26T10:30:01.110Z,65535.0
2022-08-26T10:45:01.423Z,65535.0
2022-08-26T11:00:01.157Z,65535.0
2022-08-26T11:15:01.100Z,65535.0
2022-08-26T11:30:01.305Z,65535.0
2022-08-26T11:45:04.778Z,65535.0
2022-08-26T12:00:01.108Z,65535.0
2022-08-26T12:16:01.204Z,65535.0
2022-08-26T12:30:02.168Z,65535.0
2022-08-26T12:45:01.915Z,65535.0
2022-08-26T13:30:02.385Z,65535.0
2022-08-26T14:43:01.169Z,64906.7
2022-08-26T14:44:01.103Z,64278.3
2022-08-26T14:45:01.756Z,63654.9
2022-08-26T14:46:01.108Z,63031.5
2022-08-26T14:47:01.256Z,62875.8
2022-08-26T14:48:01.109Z,62720.1
2022-08-26T14:49:01.693Z,62564.3
2022-08-26T14:56:01.179Z,61306.9
2022-08-26T14:57:01.159Z,60678.1
2022-08-26T14:58:01.114Z,59634.2
2022-08-26T14:59:01.113Z,58590.3
2022-08-26T15:01:04.157Z,56166.0
2022-08-26T15:03:01.227Z,54497.4
2022-08-26T15:04:01.099Z,52828.8
2022-08-26T15:06:01.106Z,49775.3
2022-08-26T15:07:01.117Z,48170.7
2022-08-26T15:08:01.102Z,46378.2
2022-08-26T15:09:01.102Z,44585.7
2022-08-26T15:11:01.103Z,41183.7
2022-08-26T15:12:01.098Z,39797.1
2022-08-26T15:13:01.142Z,38267.3
2022-08-26T15:14:01.116Z,37781.1
2022-08-26T15:16:01.209Z,36651.3
2022-08-26T15:17:01.402Z,36168.0
2022-08-26T15:18:01.098Z,35471.1
2022-08-26T15:19:01.100Z,34774.3
2022-08-26T15:21:01.170Z,32649.6
2022-08-26T15:22:01.100Z,31587.3
2022-08-26T15:23:05.929Z,30744.3
2022-08-26T15:24:01.171Z,29901.4
2022-08-26T15:26:01.224Z,29226.6
2022-08-26T15:27:01.108Z,28889.2
2022-08-26T15:28:01.177Z,28817.5
2022-08-26T15:29:04.777Z,28745.7
2022-08-26T15:31:01.163Z,28977.7
2022-08-26T15:32:01.099Z,29093.7
2022-08-26T15:33:01.103Z,29428.3
2022-08-26T15:34:01.099Z,29762.9
2022-08-26T15:35:09.818Z,30279.0
2022-08-26T15:36:01.103Z,30795.1
2022-08-26T15:37:01.106Z,31311.1
2022-08-26T15:38:01.174Z,31805.8
2022-08-26T15:39:01.265Z,32300.5
2022-08-26T15:41:03.122Z,32767.0
2022-08-26T15:42:06.167Z,33000.3
2022-08-26T15:43:11.608Z,33081.4
2022-08-26T15:44:01.087Z,33162.5
2022-08-26T15:45:01.808Z,33094.4
2022-08-26T15:46:01.169Z,33026.3
2022-08-26T15:47:01.123Z,32958.1
2022-08-26T15:48:02.829Z,32636.3
2022-08-26T15:49:01.186Z,32314.5
2022-08-26T15:51:01.112Z,31239.3
2022-08-26T15:52:01.352Z,30701.7
2022-08-26T15:53:01.116Z,30172.3
2022-08-26T15:54:01.172Z,29642.9
2022-08-26T15:56:01.174Z,28732.1
2022-08-26T15:57:01.114Z,28276.7
2022-08-26T15:58:01.174Z,27951.5
2022-08-26T15:59:01.156Z,27626.2
2022-08-26T16:01:01.128Z,27422.5
2022-08-26T16:02:02.237Z,27320.6
2022-08-26T16:03:02.133Z,27536.1
2022-08-26T16:04:01.107Z,27751.7
2022-08-26T16:05:01.321Z,28182.2
2022-08-26T16:06:01.293Z,28612.7
2022-08-26T16:07:01.171Z,29043.3
2022-08-26T16:08:01.173Z,29506.3
2022-08-26T16:09:01.105Z,29969.3
2022-08-26T16:11:03.316Z,30744.7
2022-08-26T16:12:01.108Z,31132.5
2022-08-26T16:13:01.108Z,31462.7
2022-08-26T16:14:01.120Z,31792.9
2022-08-26T16:17:01.103Z,32420.5
2022-08-26T16:18:01.096Z,33152.9
2022-08-26T16:19:04.370Z,33805.3
2022-08-26T16:20:01.163Z,35080.1
2022-08-26T16:21:12.958Z,36319.9
2022-08-26T16:22:01.102Z,37559.7
2022-08-26T16:23:01.107Z,39002.5
2022-08-26T16:24:01.099Z,40394.5
2022-08-26T16:25:01.135Z,41968.9
2022-08-26T16:26:02.188Z,43523.1
2022-08-26T16:27:01.101Z,45077.4
2022-08-26T16:28:01.101Z,47019.4
2022-08-26T16:29:01.184Z,48918.5
2022-08-26T16:30:01.181Z,51062.7
2022-08-26T16:31:07.141Z,53121.7
2022-08-26T16:32:01.098Z,55180.7
2022-08-26T16:33:01.096Z,56821.1
2022-08-26T16:34:01.204Z,58461.5
2022-08-26T16:35:01.127Z,59479.6
2022-08-26T16:36:01.833Z,60497.7
2022-08-26T16:37:01.114Z,61515.9
2022-08-26T16:38:01.108Z,62331.0
2022-08-26T16:39:01.099Z,63146.1
2022-08-26T16:40:01.274Z,63766.0
2022-08-26T16:41:01.750Z,64385.9
2022-08-26T16:42:01.171Z,65005.7
2022-08-26T16:43:01.180Z,65091.9
2022-08-26T16:44:01.111Z,65178.1
2022-08-26T16:45:01.150Z,64914.2
2022-08-26T16:46:02.130Z,64650.3
2022-08-26T16:47:01.107Z,64386.3
2022-08-26T16:48:01.108Z,64128.4
2022-08-26T16:49:01.171Z,63870.5
2022-08-26T16:50:01.180Z,63672.9
2022-08-26T16:51:02.341Z,63475.3
2022-08-26T16:52:01.120Z,63277.7
2022-08-26T16:53:01.213Z,63024.1
2022-08-26T16:54:01.112Z,62770.5
2022-08-26T16:55:01.155Z,62444.3
2022-08-26T16:56:17.252Z,62118.2
2022-08-26T16:57:01.088Z,61792.1
2022-08-26T16:58:01.117Z,61720.1
2022-08-26T17:00:01.141Z,61879.0
2022-08-26T17:01:01.744Z,62142.9
2022-08-26T17:02:01.151Z,62406.9
2022-08-26T17:03:01.171Z,62670.8
2022-08-26T17:04:01.101Z,62928.7
2022-08-26T17:05:01.239Z,63186.7
2022-08-26T17:06:01.732Z,63384.3
2022-08-26T17:07:01.098Z,63581.9
2022-08-26T17:08:01.100Z,63779.5
2022-08-26T17:09:01.163Z,64033.1
2022-08-26T17:10:01.253Z,64286.7
2022-08-26T17:11:01.739Z,64625.8
2022-08-26T17:12:01.164Z,64964.9
2022-08-26T17:13:01.435Z,65304.1
2022-08-26T17:14:01.103Z,65535.0
2022-08-26T17:15:01.198Z,65535.0
2022-08-26T17:18:01.105Z,65442.3
2022-08-26T17:19:02.209Z,65349.5
2022-08-26T17:20:01.140Z,65106.3
2022-08-26T17:21:02.488Z,64863.1
2022-08-26T17:22:01.167Z,64619.9
2022-08-26T17:23:01.164Z,64243.4
2022-08-26T17:24:01.106Z,63866.9
2022-08-26T17:25:01.134Z,63242.2
2022-08-26T17:26:01.747Z,62617.5
2022-08-26T17:27:01.101Z,61992.9
2022-08-26T17:28:01.127Z,61045.4
2022-08-26T17:29:01.111Z,60097.9
2022-08-26T17:30:01.142Z,58767.7
2022-08-26T17:31:06.162Z,57437.5
2022-08-26T17:32:01.106Z,56107.3
2022-08-26T17:33:01.109Z,54466.2
2022-08-26T17:34:01.116Z,52825.1
2022-08-26T17:35:01.140Z,50990.9
2022-08-26T17:36:02.302Z,49156.8
2022-08-26T17:37:01.107Z,47322.7
2022-08-26T17:38:01.113Z,45346.4
2022-08-26T17:39:01.178Z,43370.1
2022-08-26T17:40:01.635Z,41415.1
2022-08-26T17:41:01.774Z,39460.0
2022-08-26T17:42:01.111Z,37504.9
2022-08-26T17:43:01.117Z,35676.5
2022-08-26T17:44:01.384Z,33848.0
2022-08-26T17:45:01.149Z,32247.8
2022-08-26T17:46:08.204Z,30647.6
2022-08-26T17:47:01.117Z,29047.4
2022-08-26T17:49:01.168Z,27724.1
2022-08-26T17:50:01.167Z,26300.5
2022-08-26T17:51:07.181Z,25220.3
2022-08-26T17:52:01.098Z,24140.2
2022-08-26T17:53:01.100Z,22998.2
2022-08-26T17:54:01.103Z,22131.7
2022-08-26T17:55:01.104Z,21221.0
2022-08-26T17:56:03.610Z,20537.3
2022-08-26T17:57:01.101Z,19853.5
2022-08-26T17:58:01.104Z,19124.7
2022-08-26T17:59:02.304Z,18592.0
2022-08-26T18:00:01.106Z,18023.4
2022-08-26T18:01:03.261Z,17609.3
2022-08-26T18:02:01.154Z,17195.1
2022-08-26T18:03:01.139Z,16741.5
2022-08-26T18:04:01.414Z,16414.6
2022-08-26T18:05:01.121Z,16145.9
2022-08-26T18:06:02.125Z,15877.3
2022-08-26T18:07:01.111Z,15608.6
2022-08-26T18:08:01.139Z,15359.5
2022-08-26T18:09:01.109Z,15110.3
2022-08-26T18:10:01.135Z,14844.9
2022-08-26T18:11:02.775Z,14579.4
2022-08-26T18:12:01.110Z,14313.9
2022-08-26T18:13:01.126Z,14005.3
2022-08-26T18:14:01.107Z,13696.6
2022-08-26T18:15:01.134Z,13327.4
2022-08-26T18:16:02.115Z,12958.2
2022-08-26T18:17:01.106Z,12589.0
2022-08-26T18:18:01.113Z,12162.3
2022-08-26T18:19:01.114Z,11735.5
2022-08-26T18:20:01.136Z,11268.9
2022-08-26T18:21:01.961Z,10802.2
2022-08-26T18:22:01.112Z,10335.5
2022-08-26T18:23:01.176Z,9820.3
2022-08-26T18:24:01.111Z,9305.0
2022-08-26T18:25:01.158Z,8757.9
2022-08-26T18:26:02.066Z,8210.9
2022-08-26T18:27:01.120Z,7663.8
2022-08-26T18:28:01.113Z,7125.3
2022-08-26T18:29:01.117Z,6586.9
2022-08-26T18:30:01.148Z,6090.9
2022-08-26T18:31:02.127Z,5594.9
2022-08-26T18:32:01.115Z,5098.9
2022-08-26T18:33:01.177Z,4669.7
2022-08-26T18:34:01.116Z,4240.5
2022-08-26T18:35:01.417Z,3870.1
2022-08-26T18:36:07.281Z,3499.8
2022-08-26T18:37:01.192Z,3129.5
2022-08-26T18:38:01.463Z,2827.7
2022-08-26T18:39:01.111Z,2526.0
2022-08-26T18:40:01.517Z,2297.0
2022-08-26T18:41:01.912Z,2068.0
2022-08-26T18:42:01.115Z,1839.0
2022-08-26T18:43:01.177Z,1676.3
2022-08-26T18:44:01.115Z,1513.7
2022-08-26T18:46:02.221Z,1392.7
2022-08-26T18:47:01.102Z,1271.8
2022-08-26T18:48:01.105Z,1138.7
2022-08-26T18:49:01.187Z,1035.9
2022-08-26T18:50:01.256Z,923.6
2022-08-26T18:51:01.774Z,834.4
2022-08-26T18:52:01.113Z,745.2
2022-08-26T18:53:01.113Z,648.8
2022-08-26T18:54:01.105Z,574.7
2022-08-26T18:55:01.176Z,497.1
2022-08-26T18:56:01.771Z,438.9
2022-08-26T18:57:01.104Z,380.8
2022-08-26T18:58:01.104Z,321.2
2022-08-26T18:59:01.109Z,275.0
2022-08-26T19:00:01.133Z,227.5
2022-08-26T19:01:02.711Z,192.3
2022-08-26T19:02:02.247Z,157.1
2022-08-26T19:03:01.182Z,133.0
2022-08-26T19:04:01.102Z,108.9
2022-08-26T19:05:01.241Z,93.5
2022-08-26T19:06:01.784Z,78.2
2022-08-26T19:07:02.133Z,62.9
2022-08-26T19:08:01.107Z,54.2
2022-08-26T19:09:01.107Z,45.5
2022-08-26T19:10:01.112Z,40.2
2022-08-26T19:11:01.843Z,34.9
2022-08-26T19:12:01.115Z,29.5
2022-08-26T19:13:01.111Z,25.5
2022-08-26T19:14:01.109Z,21.5
2022-08-26T19:15:01.113Z,18.7
2022-08-26T19:16:02.032Z,15.8
2022-08-26T19:17:01.201Z,12.9
2022-08-26T19:18:01.109Z,11.1
2022-08-26T19:19:01.114Z,9.2
2022-08-26T19:20:01.117Z,8.0
2022-08-26T19:21:01.816Z,6.8
2022-08-26T19:22:01.111Z,5.6
2022-08-26T19:23:05.630Z,4.9
2022-08-26T19:24:01.112Z,4.3
2022-08-26T19:25:01.112Z,3.8
2022-08-26T19:26:01.885Z,3.3
2022-08-26T19:27:01.111Z,2.9
2022-08-26T19:28:01.110Z,2.5
2022-08-26T19:29:06.174Z,2.2
2022-08-26T19:30:01.182Z,2.0
2022-08-26T19:31:01.438Z,1.8
2022-08-26T19:32:01.124Z,1.6
2022-08-26T19:33:01.176Z,1.4
2022-08-26T19:34:01.122Z,1.2
2022-08-26T19:36:14.647Z,1.1
2022-08-26T19:37:01.108Z,0.9
2022-08-26T19:38:01.100Z,0.8
2022-08-26T19:39:01.115Z,0.7
2022-08-26T19:40:01.228Z,0.5
2022-08-26T19:42:01.508Z,0.4
2022-08-26T19:43:01.110Z,0.3
2022-08-26T19:45:01.171Z,0.2
2022-08-26T19:46:02.136Z,0.1
